Time;durP1;ratioP1;P1;durP2;ratioP2;P2;SDS_P1;SDS_P2;PMS_P1;PMS_P2;Temp;Humidity;BMP_temperature;BMP_pressure;BME280_temperature;BME280_humidity;BME280_pressure;Samples;Min_cycle;Max_cycle;Signal;HPM_P1;HPM_P2
2021/01/11 00:02:12;;;;;;;50.00;18.98;;;;;;;;;;5003403;28;20022;-67
2021/01/11 00:04:37;;;;;;;54.67;20.58;;;;;;;;;;5011672;28;20421;-67
2021/01/11 00:07:03;;;;;;;43.38;17.02;;;;;;;;;;5010562;28;20072;-67
2021/01/11 00:09:28;;;;;;;35.85;9.70;;;;;;;;;;5007101;28;20025;-67
2021/01/11 00:11:53;;;;;;;27.08;9.35;;;;;;;;;;5010718;28;20509;-67
2021/01/11 00:14:18;;;;;;;40.85;15.13;;;;;;;;;;5062112;22;20737;-64
2021/01/11 00:16:43;;;;;;;49.35;17.33;;;;;;;;;;5050327;28;20093;-64
2021/01/11 00:19:09;;;;;;;18.52;8.77;;;;;;;;;;5061543;28;20040;-64
2021/01/11 00:21:34;;;;;;;45.17;17.13;;;;;;;;;;5050923;28;20021;-66
2021/01/11 00:23:59;;;;;;;51.25;19.50;;;;;;;;;;5058927;28;20029;-65
2021/01/11 00:26:24;;;;;;;51.78;19.95;;;;;;;;;;5051277;28;20556;-64
2021/01/11 00:28:49;;;;;;;56.80;21.23;;;;;;;;;;5049400;28;20035;-64
2021/01/11 00:31:24;;;;;;;59.20;18.35;;;;;;;;;;5050226;28;20017;-65
2021/01/11 00:33:50;;;;;;;42.78;15.90;;;;;;;;;;5046831;28;20021;-65
2021/01/11 00:36:15;;;;;;;41.72;15.30;;;;;;;;;;5050023;28;20019;-65
2021/01/11 00:38:41;;;;;;;41.65;14.10;;;;;;;;;;5050235;28;20036;-66
2021/01/11 00:41:06;;;;;;;44.08;15.20;;;;;;;;;;5049450;28;20034;-64
2021/01/11 00:43:31;;;;;;;40.42;16.08;;;;;;;;;;5050535;28;20021;-64
2021/01/11 00:45:56;;;;;;;41.92;16.02;;;;;;;;;;5049734;28;20017;-66
2021/01/11 00:48:21;;;;;;;34.90;13.18;;;;;;;;;;5050044;28;20104;-65
2021/01/11 00:50:46;;;;;;;37.60;14.35;;;;;;;;;;5049227;28;20021;-64
2021/01/11 00:53:12;;;;;;;17.52;7.43;;;;;;;;;;5048331;28;20028;-64
2021/01/11 00:55:37;;;;;;;47.75;18.80;;;;;;;;;;5049054;28;20480;-67
2021/01/11 00:58:02;;;;;;;30.70;13.68;;;;;;;;;;5049812;28;20307;-65
2021/01/11 01:00:29;;;;;;;24.92;11.18;;;;;;;;;;5049340;28;20104;-65
2021/01/11 01:02:54;;;;;;;21.83;10.52;;;;;;;;;;5044011;28;20424;-65
2021/01/11 01:05:20;;;;;;;15.30;7.40;;;;;;;;;;5049422;28;20029;-66
2021/01/11 01:07:46;;;;;;;35.22;13.68;;;;;;;;;;5049628;28;20025;-65
2021/01/11 01:10:12;;;;;;;41.75;15.80;;;;;;;;;;5049724;28;20029;-65
2021/01/11 01:12:37;;;;;;;36.72;14.05;;;;;;;;;;5048458;28;20496;-64
2021/01/11 01:15:03;;;;;;;44.33;16.83;;;;;;;;;;5050174;28;20029;-64
2021/01/11 01:17:28;;;;;;;56.13;19.30;;;;;;;;;;5048760;28;20056;-64
2021/01/11 01:19:53;;;;;;;31.63;13.18;;;;;;;;;;5050070;28;20041;-64
2021/01/11 01:22:18;;;;;;;23.83;8.05;;;;;;;;;;5048886;28;20090;-65
2021/01/11 01:24:44;;;;;;;46.53;17.38;;;;;;;;;;5048853;28;20029;-65
2021/01/11 01:27:09;;;;;;;40.35;16.02;;;;;;;;;;5048753;28;20029;-66
2021/01/11 01:29:34;;;;;;;37.83;13.48;;;;;;;;;;5048983;28;20025;-65
2021/01/11 01:31:59;;;;;;;33.03;12.10;;;;;;;;;;5049331;28;20465;-65
2021/01/11 01:34:24;;;;;;;41.47;14.48;;;;;;;;;;5048809;28;20082;-65
2021/01/11 01:36:49;;;;;;;24.20;10.18;;;;;;;;;;5048968;28;20040;-65
2021/01/11 01:39:15;;;;;;;44.53;15.07;;;;;;;;;;5049474;28;20465;-65
2021/01/11 01:41:40;;;;;;;14.77;5.20;;;;;;;;;;5048867;28;20049;-65
2021/01/11 01:44:05;;;;;;;38.35;14.57;;;;;;;;;;5049718;28;20473;-65
2021/01/11 01:46:31;;;;;;;34.60;16.00;;;;;;;;;;5049111;28;20021;-65
2021/01/11 01:48:57;;;;;;;37.58;15.00;;;;;;;;;;5047556;28;20433;-65
2021/01/11 01:51:22;;;;;;;20.48;5.68;;;;;;;;;;5048890;28;20547;-66
2021/01/11 01:53:47;;;;;;;44.30;17.30;;;;;;;;;;5048996;28;20052;-64
2021/01/11 01:56:13;;;;;;;33.60;14.27;;;;;;;;;;5048904;28;20108;-64
2021/01/11 01:58:38;;;;;;;30.05;11.65;;;;;;;;;;5044544;28;20122;-67
2021/01/11 02:01:03;;;;;;;15.32;7.68;;;;;;;;;;5049440;28;20021;-65
2021/01/11 02:03:29;;;;;;;33.05;13.05;;;;;;;;;;5048880;28;20028;-65
2021/01/11 02:05:54;;;;;;;35.17;13.68;;;;;;;;;;5049349;28;20025;-64
2021/01/11 02:08:22;;;;;;;32.97;13.55;;;;;;;;;;5049597;28;20536;-64
2021/01/11 02:10:50;;;;;;;17.38;7.03;;;;;;;;;;5048156;28;20025;-65
2021/01/11 02:13:21;;;;;;;38.50;14.27;;;;;;;;;;5048462;28;20070;-64
2021/01/11 02:15:52;;;;;;;34.55;13.60;;;;;;;;;;5048537;28;20574;-64
2021/01/11 02:18:21;;;;;;;31.77;13.57;;;;;;;;;;5049401;28;20013;-64
2021/01/11 02:20:55;;;;;;;37.60;15.73;;;;;;;;;;5049345;28;20104;-65
2021/01/11 02:23:41;;;;;;;41.97;16.25;;;;;;;;;;5050056;28;20075;-66
2021/01/11 02:26:15;;;;;;;42.10;15.32;;;;;;;;;;5053144;28;20572;-65
2021/01/11 02:28:53;;;;;;;37.38;14.23;;;;;;;;;;5052522;28;20025;-66
2021/01/11 02:31:21;;;;;;;33.83;12.85;;;;;;;;;;5052756;28;20041;-65
2021/01/11 02:33:46;;;;;;;25.88;11.15;;;;;;;;;;5053615;28;20024;-66
2021/01/11 02:36:12;;;;;;;35.60;14.18;;;;;;;;;;5052786;28;20021;-65
2021/01/11 02:38:37;;;;;;;29.38;9.75;;;;;;;;;;5053440;28;20492;-65
2021/01/11 02:41:03;;;;;;;34.72;12.95;;;;;;;;;;5051599;28;20484;-66
2021/01/11 02:43:28;;;;;;;18.48;8.70;;;;;;;;;;5051988;28;20500;-65
2021/01/11 02:45:53;;;;;;;24.05;9.68;;;;;;;;;;5052364;28;20053;-66
2021/01/11 02:48:28;;;;;;;36.15;13.07;;;;;;;;;;5052957;28;20103;-66
2021/01/11 02:50:56;;;;;;;26.90;9.25;;;;;;;;;;5051131;28;20015;-66
2021/01/11 02:53:24;;;;;;;33.83;12.25;;;;;;;;;;5052457;28;20512;-66
2021/01/11 02:55:58;;;;;;;31.80;12.93;;;;;;;;;;5051946;28;20107;-66
2021/01/11 02:58:36;;;;;;;32.85;14.77;;;;;;;;;;5050900;28;20362;-66
2021/01/11 03:01:02;;;;;;;28.35;12.20;;;;;;;;;;5052346;28;20040;-66
2021/01/11 03:03:29;;;;;;;29.60;11.68;;;;;;;;;;5051950;28;20408;-65
2021/01/11 03:05:54;;;;;;;35.58;13.13;;;;;;;;;;5051782;28;20024;-67
2021/01/11 03:08:22;;;;;;;30.35;14.07;;;;;;;;;;5052755;28;20013;-65
2021/01/11 03:10:48;;;;;;;30.15;14.77;;;;;;;;;;5051577;28;20025;-65
2021/01/11 03:13:13;;;;;;;35.28;13.98;;;;;;;;;;5050245;28;20020;-65
2021/01/11 03:15:38;;;;;;;36.40;12.65;;;;;;;;;;5051200;28;20021;-64
2021/01/11 03:18:03;;;;;;;33.15;11.98;;;;;;;;;;5050313;28;20025;-65
2021/01/11 03:20:28;;;;;;;21.05;7.40;;;;;;;;;;5051681;28;20114;-65
2021/01/11 03:22:54;;;;;;;37.33;15.05;;;;;;;;;;5051416;28;20025;-65
2021/01/11 03:25:19;;;;;;;32.72;13.65;;;;;;;;;;5052091;28;20029;-67
2021/01/11 03:27:44;;;;;;;29.83;12.27;;;;;;;;;;5051861;28;20024;-66
2021/01/11 03:30:09;;;;;;;35.60;14.20;;;;;;;;;;5051924;28;20087;-65
2021/01/11 03:32:35;;;;;;;33.47;11.90;;;;;;;;;;5051091;28;20039;-65
2021/01/11 03:35:00;;;;;;;30.38;13.50;;;;;;;;;;5050958;28;20017;-64
2021/01/11 03:37:25;;;;;;;28.40;11.85;;;;;;;;;;5051296;28;20052;-65
2021/01/11 03:39:50;;;;;;;35.78;13.35;;;;;;;;;;5051639;28;20059;-65
2021/01/11 03:42:15;;;;;;;32.00;11.18;;;;;;;;;;5050983;28;20021;-65
2021/01/11 03:44:42;;;;;;;32.15;13.32;;;;;;;;;;5050427;28;20402;-64
2021/01/11 03:47:07;;;;;;;32.95;12.07;;;;;;;;;;5051374;28;20393;-64
2021/01/11 03:49:32;;;;;;;23.92;10.50;;;;;;;;;;5051079;28;20017;-64
2021/01/11 03:52:01;;;;;;;20.48;9.27;;;;;;;;;;5051073;28;20021;-64
2021/01/11 03:54:27;;;;;;;11.25;5.30;;;;;;;;;;5050942;28;20372;-65
2021/01/11 03:56:52;;;;;;;29.52;10.02;;;;;;;;;;5049737;28;20428;-64
2021/01/11 03:59:17;;;;;;;26.67;11.68;;;;;;;;;;5050348;28;20491;-65
2021/01/11 04:01:42;;;;;;;22.95;9.52;;;;;;;;;;5050826;28;20024;-65
2021/01/11 04:04:07;;;;;;;16.33;7.35;;;;;;;;;;5051361;28;20016;-64
2021/01/11 04:06:32;;;;;;;19.63;8.20;;;;;;;;;;5050992;28;20031;-65
2021/01/11 04:08:58;;;;;;;25.08;10.60;;;;;;;;;;5051936;28;20033;-66
2021/01/11 04:11:24;;;;;;;29.35;9.77;;;;;;;;;;5051751;28;20032;-65
2021/01/11 04:13:49;;;;;;;14.07;6.50;;;;;;;;;;5051877;28;20033;-65
2021/01/11 04:16:17;;;;;;;29.63;10.77;;;;;;;;;;5050894;28;20040;-64
2021/01/11 04:18:43;;;;;;;18.90;8.07;;;;;;;;;;5047486;28;20040;-64
2021/01/11 04:21:12;;;;;;;27.95;11.05;;;;;;;;;;5050668;28;20048;-65
2021/01/11 04:23:37;;;;;;;27.90;11.13;;;;;;;;;;5050292;28;20055;-65
2021/01/11 04:26:02;;;;;;;19.98;9.82;;;;;;;;;;5050268;28;20020;-65
2021/01/11 04:28:27;;;;;;;30.13;12.55;;;;;;;;;;5050777;28;20388;-65
2021/01/11 04:30:52;;;;;;;23.90;10.85;;;;;;;;;;5050147;28;20028;-65
2021/01/11 04:33:17;;;;;;;11.52;5.35;;;;;;;;;;5049979;28;20025;-65
2021/01/11 04:35:43;;;;;;;18.58;6.97;;;;;;;;;;5050402;28;20021;-65
2021/01/11 04:38:08;;;;;;;24.75;9.82;;;;;;;;;;5045043;28;20021;-65
2021/01/11 04:40:33;;;;;;;16.38;6.93;;;;;;;;;;5049341;28;20108;-66
2021/01/11 04:43:11;;;;;;;21.33;9.05;;;;;;;;;;5049666;28;20021;-64
2021/01/11 04:45:36;;;;;;;19.92;6.68;;;;;;;;;;5050189;28;20441;-65
2021/01/11 04:48:01;;;;;;;28.95;10.73;;;;;;;;;;5049216;28;20064;-64
2021/01/11 04:50:28;;;;;;;30.83;10.40;;;;;;;;;;5050351;28;20504;-65
2021/01/11 04:52:53;;;;;;;30.65;12.65;;;;;;;;;;5050188;28;20013;-64
2021/01/11 04:55:19;;;;;;;27.55;12.00;;;;;;;;;;5050050;28;20546;-64
2021/01/11 04:57:54;;;;;;;29.67;11.43;;;;;;;;;;5049237;28;20028;-64
2021/01/11 05:00:21;;;;;;;26.10;11.13;;;;;;;;;;5050145;28;20087;-65
2021/01/11 05:02:50;;;;;;;28.35;11.13;;;;;;;;;;5049649;28;20024;-65
2021/01/11 05:05:15;;;;;;;27.23;11.95;;;;;;;;;;5049463;28;20028;-65
2021/01/11 05:07:40;;;;;;;25.52;11.85;;;;;;;;;;5049681;28;20485;-64
2021/01/11 05:10:09;;;;;;;27.33;12.02;;;;;;;;;;5049614;28;20145;-64
2021/01/11 05:12:34;;;;;;;27.55;11.85;;;;;;;;;;5049563;28;20385;-65
2021/01/11 05:15:15;;;;;;;22.88;10.10;;;;;;;;;;5049179;28;20017;-65
2021/01/11 05:17:40;;;;;;;;;;;;;;;;;;5050209;28;20112;-65
2021/01/11 05:20:05;;;;;;;21.50;8.15;;;;;;;;;;5049417;28;19983;-65
2021/01/11 05:22:31;;;;;;;21.25;9.70;;;;;;;;;;5049067;28;20025;-65
2021/01/11 05:24:56;;;;;;;28.58;10.65;;;;;;;;;;5049575;28;20029;-65
2021/01/11 05:27:23;;;;;;;30.17;11.93;;;;;;;;;;5049423;28;20033;-66
2021/01/11 05:29:48;;;;;;;23.88;11.48;;;;;;;;;;5049203;28;20025;-65
2021/01/11 05:32:13;;;;;;;26.58;12.43;;;;;;;;;;5049114;28;20031;-64
2021/01/11 05:34:48;;;;;;;26.23;12.00;;;;;;;;;;5049066;28;20408;-65
2021/01/11 05:37:32;;;;;;;28.40;11.30;;;;;;;;;;5048690;28;20040;-65
2021/01/11 05:40:02;;;;;;;30.67;11.98;;;;;;;;;;5045831;28;20112;-64
2021/01/11 05:42:27;;;;;;;25.45;9.65;;;;;;;;;;5049083;28;20025;-65
2021/01/11 05:45:07;;;;;;;16.30;6.77;;;;;;;;;;5048866;28;20029;-65
2021/01/11 05:47:32;;;;;;;22.80;8.80;;;;;;;;;;5049332;28;20272;-64
2021/01/11 05:50:06;;;;;;;31.50;12.38;;;;;;;;;;5049234;28;20112;-63
2021/01/11 05:52:31;;;;;;;28.20;12.18;;;;;;;;;;5049040;28;20500;-64
2021/01/11 05:54:56;;;;;;;25.48;11.55;;;;;;;;;;5048838;28;20024;-65
2021/01/11 05:57:22;;;;;;;28.67;11.85;;;;;;;;;;5047934;28;20028;-64
2021/01/11 05:59:47;;;;;;;22.35;8.82;;;;;;;;;;5051979;28;20028;-65
2021/01/11 06:02:12;;;;;;;29.87;10.37;;;;;;;;;;5052056;28;20554;-66
2021/01/11 06:04:37;;;;;;;24.35;7.90;;;;;;;;;;5053466;28;20263;-65
2021/01/11 06:07:02;;;;;;;20.60;9.35;;;;;;;;;;5052914;28;20424;-65
2021/01/11 06:09:28;;;;;;;27.83;10.27;;;;;;;;;;5053229;28;20028;-66
2021/01/11 06:11:54;;;;;;;6.63;3.40;;;;;;;;;;5052550;28;20420;-65
2021/01/11 06:14:19;;;;;;;25.13;10.32;;;;;;;;;;5053134;28;20111;-65
2021/01/11 06:16:45;;;;;;;8.20;3.28;;;;;;;;;;5052756;28;20110;-65
2021/01/11 06:19:10;;;;;;;16.98;7.53;;;;;;;;;;5051005;28;20024;-65
2021/01/11 06:21:35;;;;;;;24.85;10.05;;;;;;;;;;5052366;28;20045;-65
2021/01/11 06:24:18;;;;;;;24.23;8.90;;;;;;;;;;5052468;28;20469;-65
2021/01/11 06:26:44;;;;;;;15.60;6.70;;;;;;;;;;5053014;28;20541;-65
2021/01/11 06:29:28;;;;;;;7.45;3.75;;;;;;;;;;5053339;28;20112;-65
2021/01/11 06:31:56;;;;;;;10.77;5.65;;;;;;;;;;5051480;28;20073;-65
2021/01/11 06:34:34;;;;;;;19.60;8.98;;;;;;;;;;5053164;28;20027;-65
2021/01/11 06:36:59;;;;;;;22.40;9.80;;;;;;;;;;5049365;28;20032;-65
2021/01/11 06:39:29;;;;;;;22.48;10.02;;;;;;;;;;5050585;28;20012;-64
2021/01/11 06:41:54;;;;;;;26.27;10.70;;;;;;;;;;5049839;28;20021;-64
2021/01/11 06:44:22;;;;;;;26.73;11.45;;;;;;;;;;5050363;28;20031;-65
2021/01/11 06:46:47;;;;;;;20.92;9.88;;;;;;;;;;5049832;28;20025;-65
2021/01/11 06:49:23;;;;;;;15.13;7.18;;;;;;;;;;5050357;28;20053;-65
2021/01/11 06:51:51;;;;;;;18.90;8.55;;;;;;;;;;5049615;28;20036;-65
2021/01/11 06:54:17;;;;;;;15.77;4.85;;;;;;;;;;5047302;28;20032;-65
2021/01/11 06:56:43;;;;;;;22.02;8.70;;;;;;;;;;5049830;28;20043;-65
2021/01/11 06:59:16;;;;;;;23.40;9.73;;;;;;;;;;5049043;28;20473;-65
2021/01/11 07:01:41;;;;;;;22.10;8.90;;;;;;;;;;5048696;28;20017;-65
2021/01/11 07:04:07;;;;;;;22.27;8.77;;;;;;;;;;5049090;28;20091;-65
2021/01/11 07:06:33;;;;;;;18.67;9.23;;;;;;;;;;5050025;28;20463;-65
2021/01/11 07:09:03;;;;;;;21.73;9.48;;;;;;;;;;5050498;28;20067;-65
2021/01/11 07:11:31;;;;;;;8.07;4.53;;;;;;;;;;5049186;28;20029;-65
2021/01/11 07:13:57;;;;;;;27.08;8.48;;;;;;;;;;5049470;28;20021;-65
2021/01/11 07:16:22;;;;;;;20.75;8.85;;;;;;;;;;5048710;28;20432;-65
2021/01/11 07:18:48;;;;;;;21.33;8.85;;;;;;;;;;5045303;28;20017;-65
2021/01/11 07:21:14;;;;;;;20.30;9.15;;;;;;;;;;5049909;28;20029;-65
2021/01/11 07:23:39;;;;;;;17.73;6.80;;;;;;;;;;5051462;28;20020;-64
2021/01/11 07:26:10;;;;;;;24.85;9.50;;;;;;;;;;5049714;28;20025;-65
2021/01/11 07:28:35;;;;;;;22.90;9.73;;;;;;;;;;5050675;28;20067;-65
2021/01/11 07:31:00;;;;;;;18.27;8.10;;;;;;;;;;5049108;28;20017;-65
2021/01/11 07:33:25;;;;;;;17.67;5.32;;;;;;;;;;5050852;28;20024;-64
2021/01/11 07:35:51;;;;;;;18.45;7.63;;;;;;;;;;5049526;28;20025;-64
2021/01/11 07:38:18;;;;;;;24.48;8.35;;;;;;;;;;5049919;28;20032;-64
2021/01/11 07:40:43;;;;;;;15.70;6.63;;;;;;;;;;5050360;28;20029;-65
2021/01/11 07:43:08;;;;;;;20.92;8.85;;;;;;;;;;5047935;28;20029;-64
2021/01/11 07:45:34;;;;;;;18.90;7.85;;;;;;;;;;5047590;28;20021;-64
2021/01/11 07:47:59;;;;;;;16.67;8.45;;;;;;;;;;5045622;28;20060;-64
2021/01/11 07:50:27;;;;;;;16.27;7.28;;;;;;;;;;5049852;28;20496;-64
2021/01/11 07:52:54;;;;;;;20.90;8.57;;;;;;;;;;5048650;28;20397;-65
2021/01/11 07:55:26;;;;;;;20.05;8.70;;;;;;;;;;5049941;28;20040;-64
2021/01/11 07:57:51;;;;;;;30.05;8.95;;;;;;;;;;5049132;28;20021;-65
2021/01/11 08:00:17;;;;;;;19.52;9.02;;;;;;;;;;5049710;28;20024;-64
2021/01/11 08:02:46;;;;;;;18.55;8.10;;;;;;;;;;5048325;28;20020;-64
2021/01/11 08:05:20;;;;;;;17.63;8.43;;;;;;;;;;5049254;28;20016;-64
2021/01/11 08:07:48;;;;;;;17.13;4.93;;;;;;;;;;5049931;28;20036;-64
2021/01/11 08:10:15;;;;;;;9.20;4.03;;;;;;;;;;5050701;28;20396;-64
2021/01/11 08:12:40;;;;;;;17.77;7.50;;;;;;;;;;5049667;28;20381;-65
2021/01/11 08:15:09;;;;;;;12.55;4.35;;;;;;;;;;5050713;28;20035;-64
2021/01/11 08:17:40;;;;;;;6.45;3.95;;;;;;;;;;5050949;28;20385;-64
2021/01/11 08:20:06;;;;;;;10.45;5.68;;;;;;;;;;5050212;28;20021;-64
2021/01/11 08:22:31;;;;;;;15.45;5.15;;;;;;;;;;5049197;28;20381;-65
2021/01/11 08:24:57;;;;;;;7.53;4.32;;;;;;;;;;5050389;28;20025;-65
2021/01/11 08:27:40;;;;;;;5.07;2.22;;;;;;;;;;5047322;28;20095;-65
2021/01/11 08:30:08;;;;;;;18.08;6.70;;;;;;;;;;5049800;28;20389;-64
2021/01/11 08:32:34;;;;;;;12.68;5.05;;;;;;;;;;5050152;28;20402;-64
2021/01/11 08:35:06;;;;;;;5.43;3.47;;;;;;;;;;5050059;28;20025;-64
2021/01/11 08:37:32;;;;;;;9.30;3.35;;;;;;;;;;5047583;28;20021;-64
2021/01/11 08:40:02;;;;;;;15.73;7.55;;;;;;;;;;5049980;28;20016;-64
2021/01/11 08:42:28;;;;;;;15.50;6.22;;;;;;;;;;5047718;28;20029;-65
2021/01/11 08:44:54;;;;;;;13.45;4.63;;;;;;;;;;5049468;28;20071;-66
2021/01/11 08:47:26;;;;;;;11.77;4.72;;;;;;;;;;5049014;28;20436;-64
2021/01/11 08:50:04;;;;;;;11.68;4.97;;;;;;;;;;5049557;28;20029;-65
2021/01/11 08:52:30;;;;;;;12.90;5.72;;;;;;;;;;5049356;28;20061;-65
2021/01/11 08:54:55;;;;;;;11.40;5.45;;;;;;;;;;5046853;28;20521;-63
2021/01/11 08:57:26;;;;;;;14.80;6.18;;;;;;;;;;5047529;28;20096;-65
2021/01/11 08:59:51;;;;;;;12.73;5.30;;;;;;;;;;5049270;28;20017;-64
2021/01/11 09:02:24;;;;;;;11.25;4.72;;;;;;;;;;5048687;28;20032;-65
2021/01/11 09:04:49;;;;;;;11.65;5.20;;;;;;;;;;5046023;28;20028;-65
2021/01/11 09:07:23;;;;;;;17.38;7.05;;;;;;;;;;5044791;28;20062;-64
2021/01/11 09:09:48;;;;;;;15.05;4.55;;;;;;;;;;5039836;28;20029;-66
2021/01/11 09:12:14;;;;;;;13.98;5.38;;;;;;;;;;5046989;28;20099;-63
2021/01/11 09:14:52;;;;;;;18.70;6.80;;;;;;;;;;5042844;28;20040;-64
2021/01/11 09:17:24;;;;;;;14.40;6.05;;;;;;;;;;5041641;28;20508;-66
2021/01/11 09:19:49;;;;;;;12.48;6.45;;;;;;;;;;5045302;28;20029;-63
2021/01/11 09:22:17;;;;;;;15.40;6.70;;;;;;;;;;5047044;28;20017;-64
2021/01/11 09:24:43;;;;;;;21.02;9.30;;;;;;;;;;5043048;28;20075;-63
2021/01/11 09:27:09;;;;;;;13.73;5.97;;;;;;;;;;5047941;28;20513;-63
2021/01/11 09:29:35;;;;;;;19.65;8.10;;;;;;;;;;5049345;28;20118;-64
2021/01/11 09:32:00;;;;;;;15.73;6.03;;;;;;;;;;5049265;28;20047;-64
2021/01/11 09:34:25;;;;;;;17.73;7.10;;;;;;;;;;5047141;28;20481;-64
2021/01/11 09:36:50;;;;;;;17.80;7.25;;;;;;;;;;5046115;28;20071;-64
2021/01/11 09:39:17;;;;;;;9.18;5.53;;;;;;;;;;5042164;28;20021;-64
2021/01/11 09:41:45;;;;;;;10.43;5.25;;;;;;;;;;5046766;28;20025;-64
2021/01/11 09:44:10;;;;;;;9.43;4.95;;;;;;;;;;5043578;28;20082;-64
2021/01/11 09:46:43;;;;;;;14.02;4.97;;;;;;;;;;5047979;28;20025;-64
2021/01/11 09:49:08;;;;;;;14.98;6.07;;;;;;;;;;5048141;28;20033;-65
2021/01/11 09:51:33;;;;;;;16.55;7.22;;;;;;;;;;5048992;28;20079;-65
2021/01/11 09:53:59;;;;;;;18.70;7.78;;;;;;;;;;5049048;28;20020;-65
2021/01/11 09:56:24;;;;;;;9.93;4.45;;;;;;;;;;5048602;28;20017;-65
2021/01/11 09:58:52;;;;;;;28.10;6.95;;;;;;;;;;5047738;28;20017;-64
2021/01/11 10:01:17;;;;;;;14.30;5.32;;;;;;;;;;5049068;28;20504;-64
2021/01/11 10:03:43;;;;;;;20.02;6.68;;;;;;;;;;5049822;28;20028;-64
2021/01/11 10:06:08;;;;;;;21.20;9.98;;;;;;;;;;5049777;28;20585;-64
2021/01/11 10:08:35;;;;;;;12.52;5.00;;;;;;;;;;5049330;28;20104;-64
2021/01/11 10:11:00;;;;;;;13.05;5.80;;;;;;;;;;5047260;28;20025;-63
2021/01/11 10:13:25;;;;;;;14.60;4.93;;;;;;;;;;5048295;28;20086;-63
2021/01/11 10:15:50;;;;;;;14.77;7.03;;;;;;;;;;5048879;28;20024;-64
2021/01/11 10:18:15;;;;;;;17.50;6.22;;;;;;;;;;5049415;28;20046;-64
2021/01/11 10:20:42;;;;;;;27.17;8.13;;;;;;;;;;5049146;28;20033;-64
2021/01/11 10:23:07;;;;;;;12.75;6.25;;;;;;;;;;5048847;28;20063;-64
2021/01/11 10:25:33;;;;;;;14.18;7.63;;;;;;;;;;5047734;28;20025;-64
2021/01/11 10:27:58;;;;;;;14.07;6.95;;;;;;;;;;5046059;28;20032;-64
2021/01/11 10:30:23;;;;;;;9.05;5.90;;;;;;;;;;5042164;28;20566;-64
2021/01/11 10:32:48;;;;;;;13.32;6.65;;;;;;;;;;5042293;28;20686;-64
2021/01/11 10:35:14;;;;;;;12.05;5.88;;;;;;;;;;5045765;28;20186;-64
2021/01/11 10:37:39;;;;;;;14.82;7.07;;;;;;;;;;5041240;28;20017;-64
2021/01/11 10:40:04;;;;;;;11.68;4.93;;;;;;;;;;5041334;28;20033;-64
2021/01/11 10:42:29;;;;;;;14.70;6.15;;;;;;;;;;5042914;28;20086;-64
2021/01/11 10:44:55;;;;;;;17.80;8.27;;;;;;;;;;5041743;28;20020;-64
2021/01/11 10:47:20;;;;;;;19.80;6.15;;;;;;;;;;5047716;28;20028;-64
2021/01/11 10:49:45;;;;;;;14.00;5.80;;;;;;;;;;5045379;28;20027;-64
2021/01/11 10:52:10;;;;;;;10.60;4.63;;;;;;;;;;5043123;28;20381;-64
2021/01/11 10:54:35;;;;;;;24.00;8.85;;;;;;;;;;5042102;28;20320;-65
2021/01/11 10:57:01;;;;;;;11.60;4.90;;;;;;;;;;5046464;28;20144;-66
2021/01/11 10:59:26;;;;;;;14.40;5.72;;;;;;;;;;5046775;28;20032;-65
2021/01/11 11:01:51;;;;;;;11.40;3.90;;;;;;;;;;5046627;28;20062;-64
2021/01/11 11:04:16;;;;;;;8.68;4.72;;;;;;;;;;5047104;28;20079;-64
2021/01/11 11:06:42;;;;;;;11.95;5.35;;;;;;;;;;5045150;28;20482;-64
2021/01/11 11:09:07;;;;;;;15.48;6.20;;;;;;;;;;5048149;28;20079;-64
2021/01/11 11:11:32;;;;;;;8.80;4.45;;;;;;;;;;5046269;28;20024;-64
2021/01/11 11:13:57;;;;;;;11.27;5.00;;;;;;;;;;5050106;28;20051;-64
2021/01/11 11:16:22;;;;;;;28.73;7.10;;;;;;;;;;5044739;28;20068;-64
2021/01/11 11:18:48;;;;;;;12.00;5.07;;;;;;;;;;5047479;28;20041;-64
2021/01/11 11:21:13;;;;;;;22.80;6.00;;;;;;;;;;5049641;28;20021;-64
2021/01/11 11:23:38;;;;;;;10.90;5.38;;;;;;;;;;5049644;28;20009;-64
2021/01/11 11:26:04;;;;;;;12.45;5.43;;;;;;;;;;5048620;28;20024;-64
2021/01/11 11:28:29;;;;;;;18.15;7.20;;;;;;;;;;5047184;28;20026;-64
2021/01/11 11:30:55;;;;;;;16.00;7.32;;;;;;;;;;5045292;28;20033;-64
2021/01/11 11:33:21;;;;;;;13.55;5.00;;;;;;;;;;5050554;28;20017;-64
2021/01/11 11:35:46;;;;;;;13.82;6.55;;;;;;;;;;5047566;28;20029;-64
2021/01/11 11:38:11;;;;;;;15.73;7.10;;;;;;;;;;5047708;28;20017;-65
2021/01/11 11:40:37;;;;;;;10.40;5.20;;;;;;;;;;5042806;28;20067;-65
2021/01/11 11:43:04;;;;;;;9.52;3.75;;;;;;;;;;5045663;28;20036;-65
2021/01/11 11:45:29;;;;;;;14.55;5.47;;;;;;;;;;5046581;28;20017;-65
2021/01/11 11:47:54;;;;;;;17.00;7.53;;;;;;;;;;5045510;28;20013;-65
2021/01/11 11:50:20;;;;;;;16.88;5.72;;;;;;;;;;5048686;28;20547;-65
2021/01/11 11:52:45;;;;;;;13.93;4.15;;;;;;;;;;5050048;28;20060;-65
2021/01/11 11:55:11;;;;;;;14.75;7.93;;;;;;;;;;5049786;28;20060;-65
2021/01/11 11:57:40;;;;;;;18.27;6.95;;;;;;;;;;5046349;28;20055;-65
2021/01/11 12:00:05;;;;;;;11.20;4.40;;;;;;;;;;5049651;28;20024;-65
2021/01/11 12:02:31;;;;;;;10.65;5.43;;;;;;;;;;5050626;28;20291;-65
2021/01/11 12:04:56;;;;;;;9.30;5.60;;;;;;;;;;5049530;28;20357;-65
2021/01/11 12:07:23;;;;;;;6.68;4.15;;;;;;;;;;5051041;28;20266;-65
2021/01/11 12:09:49;;;;;;;12.52;6.82;;;;;;;;;;5049824;28;20068;-65
2021/01/11 12:12:14;;;;;;;16.95;6.25;;;;;;;;;;5049157;28;20052;-65
2021/01/11 12:14:39;;;;;;;15.35;6.60;;;;;;;;;;5050299;28;20021;-65
2021/01/11 12:17:04;;;;;;;10.85;6.07;;;;;;;;;;5049907;28;20036;-64
2021/01/11 12:19:30;;;;;;;11.35;5.95;;;;;;;;;;5050420;28;20023;-64
2021/01/11 12:21:55;;;;;;;12.73;6.78;;;;;;;;;;5050079;28;20029;-65
2021/01/11 12:24:20;;;;;;;15.70;8.35;;;;;;;;;;5049434;28;20109;-64
2021/01/11 12:26:47;;;;;;;11.77;5.47;;;;;;;;;;5050404;28;20520;-64
2021/01/11 12:29:13;;;;;;;9.65;4.57;;;;;;;;;;5050245;28;20111;-66
2021/01/11 12:31:39;;;;;;;14.27;5.35;;;;;;;;;;5050046;28;20021;-64
2021/01/11 12:34:05;;;;;;;11.05;4.85;;;;;;;;;;5050165;28;20028;-65
2021/01/11 12:36:31;;;;;;;11.75;5.55;;;;;;;;;;5049122;28;20025;-64
2021/01/11 12:38:56;;;;;;;9.23;4.60;;;;;;;;;;5049182;28;20021;-65
2021/01/11 12:41:22;;;;;;;9.18;4.05;;;;;;;;;;5049162;28;20093;-65
2021/01/11 12:43:47;;;;;;;11.38;4.85;;;;;;;;;;5049475;28;20013;-65
2021/01/11 12:46:14;;;;;;;17.90;7.20;;;;;;;;;;5049688;28;20013;-64
2021/01/11 12:48:39;;;;;;;10.80;3.65;;;;;;;;;;5049364;28;20096;-65
2021/01/11 12:51:05;;;;;;;15.00;5.57;;;;;;;;;;5049270;28;20092;-64
2021/01/11 12:53:30;;;;;;;13.48;6.32;;;;;;;;;;5049980;28;20013;-65
2021/01/11 12:55:56;;;;;;;6.45;3.95;;;;;;;;;;5049287;28;20028;-64
2021/01/11 12:58:21;;;;;;;15.05;6.05;;;;;;;;;;5049021;28;20025;-65
2021/01/11 13:00:46;;;;;;;10.27;5.65;;;;;;;;;;5049279;28;20025;-66
2021/01/11 13:03:11;;;;;;;13.77;7.13;;;;;;;;;;5048596;28;20013;-65
2021/01/11 13:05:39;;;;;;;8.23;4.07;;;;;;;;;;5048482;28;20398;-64
2021/01/11 13:08:04;;;;;;;13.43;6.15;;;;;;;;;;5049396;28;20675;-66
2021/01/11 13:10:29;;;;;;;13.73;6.10;;;;;;;;;;5049089;28;20083;-64
2021/01/11 13:12:54;;;;;;;13.47;6.30;;;;;;;;;;5049674;28;20079;-65
2021/01/11 13:15:21;;;;;;;18.13;5.43;;;;;;;;;;5049699;28;20279;-64
2021/01/11 13:17:46;;;;;;;9.65;5.15;;;;;;;;;;5049076;28;20267;-67
2021/01/11 13:20:12;;;;;;;11.38;5.40;;;;;;;;;;5048305;28;20630;-64
2021/01/11 13:22:38;;;;;;;14.18;4.35;;;;;;;;;;5049821;28;20049;-64
2021/01/11 13:25:04;;;;;;;11.85;6.10;;;;;;;;;;5048861;28;20477;-67
2021/01/11 13:27:29;;;;;;;7.68;3.42;;;;;;;;;;5046590;28;20444;-65
2021/01/11 13:29:54;;;;;;;10.70;4.90;;;;;;;;;;5049458;28;20112;-63
2021/01/11 13:32:19;;;;;;;14.25;5.82;;;;;;;;;;5048762;28;20282;-65
2021/01/11 13:34:46;;;;;;;9.50;4.45;;;;;;;;;;5049406;28;20059;-66
2021/01/11 13:37:11;;;;;;;12.43;5.38;;;;;;;;;;5048931;28;20043;-66
2021/01/11 13:39:36;;;;;;;14.25;6.05;;;;;;;;;;5048542;28;20021;-65
2021/01/11 13:42:07;;;;;;;14.57;5.75;;;;;;;;;;5048490;28;20013;-65
2021/01/11 13:44:32;;;;;;;5.80;3.28;;;;;;;;;;5048795;28;20025;-64
2021/01/11 13:46:58;;;;;;;8.53;3.73;;;;;;;;;;5048967;28;20093;-66
2021/01/11 13:49:23;;;;;;;11.80;5.00;;;;;;;;;;5046978;28;20639;-65
2021/01/11 13:51:51;;;;;;;6.57;2.65;;;;;;;;;;5047539;28;20163;-66
2021/01/11 13:54:16;;;;;;;10.65;4.45;;;;;;;;;;5048786;28;20028;-65
2021/01/11 13:56:43;;;;;;;16.53;5.57;;;;;;;;;;5047699;28;20032;-65
2021/01/11 13:59:09;;;;;;;5.30;3.70;;;;;;;;;;5048600;28;20268;-64
2021/01/11 14:01:38;;;;;;;10.25;5.50;;;;;;;;;;5049104;28;20095;-66
2021/01/11 14:04:04;;;;;;;13.02;5.78;;;;;;;;;;5048897;28;20032;-66
2021/01/11 14:06:30;;;;;;;7.65;4.03;;;;;;;;;;5048010;28;20031;-65
2021/01/11 14:08:56;;;;;;;11.40;5.47;;;;;;;;;;5050345;28;20028;-66
2021/01/11 14:11:22;;;;;;;11.10;5.30;;;;;;;;;;5048404;28;20025;-65
2021/01/11 14:13:47;;;;;;;5.00;2.92;;;;;;;;;;5048794;28;20104;-65
2021/01/11 14:16:13;;;;;;;10.30;4.82;;;;;;;;;;5049746;28;20065;-66
2021/01/11 14:18:38;;;;;;;7.57;4.43;;;;;;;;;;5049722;28;20114;-64
2021/01/11 14:21:04;;;;;;;13.75;7.80;;;;;;;;;;5050541;28;20094;-65
2021/01/11 14:23:29;;;;;;;10.65;4.55;;;;;;;;;;5051646;28;20024;-65